sensor_id;sensor_type;location;lat;lon;timestamp;P1;durP1;ratioP1;P2;durP2;ratioP2
7377;SDS011;3730;50.856;12.776;2022-07-09T00:01:36;4.63;;;2.83;;
7377;SDS011;3730;50.856;12.776;2022-07-09T00:04:02;3.20;;;2.50;;
7377;SDS011;3730;50.856;12.776;2022-07-09T00:06:28;3.03;;;2.70;;
7377;SDS011;3730;50.856;12.776;2022-07-09T00:08:54;3.47;;;2.77;;
7377;SDS011;3730;50.856;12.776;2022-07-09T00:11:20;3.77;;;2.40;;
7377;SDS011;3730;50.856;12.776;2022-07-09T00:13:46;4.17;;;2.67;;
7377;SDS011;3730;50.856;12.776;2022-07-09T00:16:12;3.97;;;2.50;;
7377;SDS011;3730;50.856;12.776;2022-07-09T00:18:38;3.80;;;2.50;;
7377;SDS011;3730;50.856;12.776;2022-07-09T00:21:03;3.50;;;2.57;;
7377;SDS011;3730;50.856;12.776;2022-07-09T00:23:29;3.07;;;2.07;;
7377;SDS011;3730;50.856;12.776;2022-07-09T00:25:55;3.60;;;2.30;;
7377;SDS011;3730;50.856;12.776;2022-07-09T00:28:21;6.53;;;2.30;;
7377;SDS011;3730;50.856;12.776;2022-07-09T00:30:46;2.40;;;2.17;;
7377;SDS011;3730;50.856;12.776;2022-07-09T00:33:12;4.63;;;2.70;;
7377;SDS011;3730;50.856;12.776;2022-07-09T00:35:38;2.87;;;2.63;;
7377;SDS011;3730;50.856;12.776;2022-07-09T00:38:03;3.33;;;2.20;;
7377;SDS011;3730;50.856;12.776;2022-07-09T00:40:29;3.23;;;2.67;;
7377;SDS011;3730;50.856;12.776;2022-07-09T00:42:55;5.13;;;2.50;;
7377;SDS011;3730;50.856;12.776;2022-07-09T00:45:20;3.07;;;2.30;;
7377;SDS011;3730;50.856;12.776;2022-07-09T00:47:46;2.63;;;2.27;;
7377;SDS011;3730;50.856;12.776;2022-07-09T00:50:11;4.67;;;2.70;;
7377;SDS011;3730;50.856;12.776;2022-07-09T00:52:38;4.80;;;2.30;;
7377;SDS011;3730;50.856;12.776;2022-07-09T00:55:04;4.63;;;2.50;;
7377;SDS011;3730;50.856;12.776;2022-07-09T00:57:31;3.73;;;2.20;;
7377;SDS011;3730;50.856;12.776;2022-07-09T00:59:58;3.70;;;2.50;;
7377;SDS011;3730;50.856;12.776;2022-07-09T01:02:25;3.60;;;2.50;;
7377;SDS011;3730;50.856;12.776;2022-07-09T01:04:51;2.47;;;2.27;;
7377;SDS011;3730;50.856;12.776;2022-07-09T01:07:16;3.67;;;2.40;;
7377;SDS011;3730;50.856;12.776;2022-07-09T01:09:42;5.77;;;2.77;;
7377;SDS011;3730;50.856;12.776;2022-07-09T01:12:09;3.07;;;2.70;;
7377;SDS011;3730;50.856;12.776;2022-07-09T01:14:35;4.10;;;2.50;;
7377;SDS011;3730;50.856;12.776;2022-07-09T01:17:04;2.53;;;2.33;;
7377;SDS011;3730;50.856;12.776;2022-07-09T01:19:31;5.83;;;2.60;;
7377;SDS011;3730;50.856;12.776;2022-07-09T01:21:57;5.47;;;2.30;;
7377;SDS011;3730;50.856;12.776;2022-07-09T01:24:24;4.00;;;2.60;;
7377;SDS011;3730;50.856;12.776;2022-07-09T01:26:50;4.53;;;2.67;;
7377;SDS011;3730;50.856;12.776;2022-07-09T01:29:17;3.27;;;2.20;;
7377;SDS011;3730;50.856;12.776;2022-07-09T01:31:43;4.07;;;2.33;;
7377;SDS011;3730;50.856;12.776;2022-07-09T01:34:09;4.07;;;2.67;;
7377;SDS011;3730;50.856;12.776;2022-07-09T01:36:35;2.70;;;2.10;;
7377;SDS011;3730;50.856;12.776;2022-07-09T01:39:00;3.37;;;2.30;;
7377;SDS011;3730;50.856;12.776;2022-07-09T01:41:26;4.17;;;2.73;;
7377;SDS011;3730;50.856;12.776;2022-07-09T01:43:52;7.10;;;2.50;;
7377;SDS011;3730;50.856;12.776;2022-07-09T01:46:17;4.53;;;2.43;;
7377;SDS011;3730;50.856;12.776;2022-07-09T01:48:43;2.90;;;2.70;;
7377;SDS011;3730;50.856;12.776;2022-07-09T01:51:09;4.10;;;2.50;;
7377;SDS011;3730;50.856;12.776;2022-07-09T01:53:35;2.93;;;2.43;;
7377;SDS011;3730;50.856;12.776;2022-07-09T01:56:07;3.87;;;2.60;;
7377;SDS011;3730;50.856;12.776;2022-07-09T01:58:34;3.00;;;2.40;;
7377;SDS011;3730;50.856;12.776;2022-07-09T02:01:00;2.40;;;2.20;;
7377;SDS011;3730;50.856;12.776;2022-07-09T02:03:26;4.63;;;2.60;;
7377;SDS011;3730;50.856;12.776;2022-07-09T02:05:51;5.73;;;2.57;;
7377;SDS011;3730;50.856;12.776;2022-07-09T02:08:17;5.03;;;2.60;;
7377;SDS011;3730;50.856;12.776;2022-07-09T02:10:43;3.47;;;2.37;;
7377;SDS011;3730;50.856;12.776;2022-07-09T02:13:08;3.50;;;2.50;;
7377;SDS011;3730;50.856;12.776;2022-07-09T02:15:34;3.67;;;2.23;;
7377;SDS011;3730;50.856;12.776;2022-07-09T02:17:59;3.37;;;2.30;;
7377;SDS011;3730;50.856;12.776;2022-07-09T02:20:25;3.87;;;2.10;;
7377;SDS011;3730;50.856;12.776;2022-07-09T02:22:51;4.37;;;2.47;;
7377;SDS011;3730;50.856;12.776;2022-07-09T02:25:17;4.07;;;2.63;;
7377;SDS011;3730;50.856;12.776;2022-07-09T02:27:43;3.40;;;2.30;;
7377;SDS011;3730;50.856;12.776;2022-07-09T02:30:09;2.73;;;2.10;;
7377;SDS011;3730;50.856;12.776;2022-07-09T02:32:35;2.23;;;1.90;;
7377;SDS011;3730;50.856;12.776;2022-07-09T02:35:04;2.37;;;2.17;;
7377;SDS011;3730;50.856;12.776;2022-07-09T02:37:30;3.10;;;2.47;;
7377;SDS011;3730;50.856;12.776;2022-07-09T02:39:57;3.63;;;2.17;;
7377;SDS011;3730;50.856;12.776;2022-07-09T02:42:22;4.10;;;2.23;;
7377;SDS011;3730;50.856;12.776;2022-07-09T02:44:48;2.60;;;2.17;;
7377;SDS011;3730;50.856;12.776;2022-07-09T02:47:14;4.70;;;2.43;;
7377;SDS011;3730;50.856;12.776;2022-07-09T02:49:40;2.70;;;2.30;;
7377;SDS011;3730;50.856;12.776;2022-07-09T02:52:06;3.47;;;2.20;;
7377;SDS011;3730;50.856;12.776;2022-07-09T02:54:32;5.37;;;2.37;;
7377;SDS011;3730;50.856;12.776;2022-07-09T02:56:58;4.13;;;2.30;;
7377;SDS011;3730;50.856;12.776;2022-07-09T02:59:24;2.57;;;1.90;;
7377;SDS011;3730;50.856;12.776;2022-07-09T03:01:51;3.00;;;2.20;;
7377;SDS011;3730;50.856;12.776;2022-07-09T03:04:16;6.23;;;2.73;;
7377;SDS011;3730;50.856;12.776;2022-07-09T03:06:42;3.83;;;2.43;;
7377;SDS011;3730;50.856;12.776;2022-07-09T03:09:08;4.27;;;2.47;;
7377;SDS011;3730;50.856;12.776;2022-07-09T03:11:33;4.17;;;2.30;;
7377;SDS011;3730;50.856;12.776;2022-07-09T03:13:59;3.30;;;2.13;;
7377;SDS011;3730;50.856;12.776;2022-07-09T03:16:25;4.20;;;2.40;;
7377;SDS011;3730;50.856;12.776;2022-07-09T03:18:50;4.07;;;2.70;;
7377;SDS011;3730;50.856;12.776;2022-07-09T03:21:16;3.13;;;2.30;;
7377;SDS011;3730;50.856;12.776;2022-07-09T03:23:42;2.90;;;2.23;;
7377;SDS011;3730;50.856;12.776;2022-07-09T03:26:08;2.73;;;2.30;;
7377;SDS011;3730;50.856;12.776;2022-07-09T03:28:34;3.27;;;2.13;;
7377;SDS011;3730;50.856;12.776;2022-07-09T03:31:00;4.10;;;2.10;;
7377;SDS011;3730;50.856;12.776;2022-07-09T03:33:26;3.33;;;2.23;;
7377;SDS011;3730;50.856;12.776;2022-07-09T03:35:53;7.67;;;2.80;;
7377;SDS011;3730;50.856;12.776;2022-07-09T03:38:20;4.63;;;2.73;;
7377;SDS011;3730;50.856;12.776;2022-07-09T03:40:46;3.20;;;2.77;;
7377;SDS011;3730;50.856;12.776;2022-07-09T03:43:11;5.43;;;2.53;;
7377;SDS011;3730;50.856;12.776;2022-07-09T03:45:37;2.90;;;2.60;;
7377;SDS011;3730;50.856;12.776;2022-07-09T03:48:04;3.17;;;2.40;;
7377;SDS011;3730;50.856;12.776;2022-07-09T03:50:30;4.20;;;2.63;;
7377;SDS011;3730;50.856;12.776;2022-07-09T03:52:56;3.27;;;2.33;;
7377;SDS011;3730;50.856;12.776;2022-07-09T03:55:23;4.93;;;2.73;;
7377;SDS011;3730;50.856;12.776;2022-07-09T03:57:50;2.43;;;2.20;;
7377;SDS011;3730;50.856;12.776;2022-07-09T04:00:16;2.60;;;2.40;;
7377;SDS011;3730;50.856;12.776;2022-07-09T04:02:42;3.57;;;2.70;;
7377;SDS011;3730;50.856;12.776;2022-07-09T04:05:08;3.50;;;2.23;;
7377;SDS011;3730;50.856;12.776;2022-07-09T04:07:34;3.70;;;2.73;;
7377;SDS011;3730;50.856;12.776;2022-07-09T04:10:00;4.13;;;2.63;;
7377;SDS011;3730;50.856;12.776;2022-07-09T04:12:26;2.97;;;2.77;;
7377;SDS011;3730;50.856;12.776;2022-07-09T04:14:52;3.10;;;2.80;;
7377;SDS011;3730;50.856;12.776;2022-07-09T04:17:18;4.30;;;2.53;;
7377;SDS011;3730;50.856;12.776;2022-07-09T04:19:44;4.47;;;2.70;;
7377;SDS011;3730;50.856;12.776;2022-07-09T04:22:10;5.00;;;2.67;;
7377;SDS011;3730;50.856;12.776;2022-07-09T04:24:36;2.60;;;2.40;;
7377;SDS011;3730;50.856;12.776;2022-07-09T04:27:03;3.40;;;2.80;;
7377;SDS011;3730;50.856;12.776;2022-07-09T04:29:29;6.10;;;3.00;;
7377;SDS011;3730;50.856;12.776;2022-07-09T04:31:55;4.13;;;2.60;;
7377;SDS011;3730;50.856;12.776;2022-07-09T04:34:21;4.80;;;2.90;;
7377;SDS011;3730;50.856;12.776;2022-07-09T04:36:47;3.90;;;2.77;;
7377;SDS011;3730;50.856;12.776;2022-07-09T04:39:14;4.57;;;2.97;;
7377;SDS011;3730;50.856;12.776;2022-07-09T04:41:40;6.27;;;3.10;;
7377;SDS011;3730;50.856;12.776;2022-07-09T04:44:06;3.53;;;2.67;;
7377;SDS011;3730;50.856;12.776;2022-07-09T04:46:32;3.23;;;2.80;;
7377;SDS011;3730;50.856;12.776;2022-07-09T04:48:58;3.90;;;3.07;;
7377;SDS011;3730;50.856;12.776;2022-07-09T04:51:24;3.63;;;2.80;;
7377;SDS011;3730;50.856;12.776;2022-07-09T04:53:50;6.93;;;3.23;;
7377;SDS011;3730;50.856;12.776;2022-07-09T04:56:16;5.03;;;3.10;;
7377;SDS011;3730;50.856;12.776;2022-07-09T04:58:42;3.60;;;3.27;;
7377;SDS011;3730;50.856;12.776;2022-07-09T05:01:17;6.13;;;3.17;;
7377;SDS011;3730;50.856;12.776;2022-07-09T05:03:43;4.37;;;3.20;;
7377;SDS011;3730;50.856;12.776;2022-07-09T05:06:09;4.60;;;3.53;;
7377;SDS011;3730;50.856;12.776;2022-07-09T05:08:35;4.73;;;3.23;;
7377;SDS011;3730;50.856;12.776;2022-07-09T05:11:01;3.43;;;3.13;;
7377;SDS011;3730;50.856;12.776;2022-07-09T05:13:27;3.50;;;2.93;;
7377;SDS011;3730;50.856;12.776;2022-07-09T05:15:53;3.93;;;3.20;;
7377;SDS011;3730;50.856;12.776;2022-07-09T05:18:19;4.80;;;3.23;;
7377;SDS011;3730;50.856;12.776;2022-07-09T05:20:45;4.87;;;3.23;;
7377;SDS011;3730;50.856;12.776;2022-07-09T05:23:11;4.30;;;2.80;;
7377;SDS011;3730;50.856;12.776;2022-07-09T05:25:37;3.70;;;3.40;;
7377;SDS011;3730;50.856;12.776;2022-07-09T05:28:03;3.67;;;2.90;;
7377;SDS011;3730;50.856;12.776;2022-07-09T05:30:29;3.40;;;2.80;;
7377;SDS011;3730;50.856;12.776;2022-07-09T05:33:01;7.33;;;3.27;;
7377;SDS011;3730;50.856;12.776;2022-07-09T05:35:27;6.43;;;3.90;;
7377;SDS011;3730;50.856;12.776;2022-07-09T05:37:53;8.50;;;3.67;;
7377;SDS011;3730;50.856;12.776;2022-07-09T05:40:20;6.50;;;3.63;;
7377;SDS011;3730;50.856;12.776;2022-07-09T05:42:46;5.33;;;3.60;;
7377;SDS011;3730;50.856;12.776;2022-07-09T05:45:12;6.97;;;3.63;;
7377;SDS011;3730;50.856;12.776;2022-07-09T05:47:38;6.27;;;3.97;;
7377;SDS011;3730;50.856;12.776;2022-07-09T05:50:04;7.30;;;3.90;;
7377;SDS011;3730;50.856;12.776;2022-07-09T05:52:30;6.37;;;3.67;;
7377;SDS011;3730;50.856;12.776;2022-07-09T05:54:57;6.03;;;4.67;;
7377;SDS011;3730;50.856;12.776;2022-07-09T05:57:23;9.83;;;4.17;;
7377;SDS011;3730;50.856;12.776;2022-07-09T05:59:50;4.40;;;4.00;;
7377;SDS011;3730;50.856;12.776;2022-07-09T06:02:16;5.00;;;4.10;;
7377;SDS011;3730;50.856;12.776;2022-07-09T06:04:43;4.37;;;3.93;;
7377;SDS011;3730;50.856;12.776;2022-07-09T06:07:09;5.50;;;3.67;;
7377;SDS011;3730;50.856;12.776;2022-07-09T06:09:35;7.53;;;3.63;;
7377;SDS011;3730;50.856;12.776;2022-07-09T06:12:02;8.07;;;3.50;;
7377;SDS011;3730;50.856;12.776;2022-07-09T06:14:28;4.33;;;2.90;;
7377;SDS011;3730;50.856;12.776;2022-07-09T06:16:54;4.87;;;3.30;;
7377;SDS011;3730;50.856;12.776;2022-07-09T06:19:20;3.00;;;2.80;;
7377;SDS011;3730;50.856;12.776;2022-07-09T06:21:46;5.37;;;3.40;;
7377;SDS011;3730;50.856;12.776;2022-07-09T06:24:12;4.40;;;2.90;;
7377;SDS011;3730;50.856;12.776;2022-07-09T06:26:38;3.77;;;3.10;;
7377;SDS011;3730;50.856;12.776;2022-07-09T06:29:05;6.33;;;2.93;;
7377;SDS011;3730;50.856;12.776;2022-07-09T06:31:31;3.20;;;2.87;;
7377;SDS011;3730;50.856;12.776;2022-07-09T06:33:57;4.13;;;3.33;;
7377;SDS011;3730;50.856;12.776;2022-07-09T06:36:23;5.93;;;3.17;;
7377;SDS011;3730;50.856;12.776;2022-07-09T06:38:49;6.43;;;2.90;;
7377;SDS011;3730;50.856;12.776;2022-07-09T06:41:34;3.30;;;2.70;;
7377;SDS011;3730;50.856;12.776;2022-07-09T06:44:00;6.13;;;3.20;;
7377;SDS011;3730;50.856;12.776;2022-07-09T06:46:26;4.93;;;3.30;;
7377;SDS011;3730;50.856;12.776;2022-07-09T06:48:52;5.17;;;3.17;;
7377;SDS011;3730;50.856;12.776;2022-07-09T06:51:18;8.47;;;3.40;;
7377;SDS011;3730;50.856;12.776;2022-07-09T06:53:44;3.63;;;2.93;;
7377;SDS011;3730;50.856;12.776;2022-07-09T06:56:10;4.47;;;3.53;;
7377;SDS011;3730;50.856;12.776;2022-07-09T06:58:36;5.80;;;3.97;;
7377;SDS011;3730;50.856;12.776;2022-07-09T07:01:02;5.27;;;3.80;;
7377;SDS011;3730;50.856;12.776;2022-07-09T07:03:28;5.63;;;3.90;;
7377;SDS011;3730;50.856;12.776;2022-07-09T07:05:54;4.17;;;3.17;;
7377;SDS011;3730;50.856;12.776;2022-07-09T07:08:20;4.03;;;3.00;;
7377;SDS011;3730;50.856;12.776;2022-07-09T07:10:46;4.90;;;4.00;;
7377;SDS011;3730;50.856;12.776;2022-07-09T07:13:12;5.67;;;3.70;;
7377;SDS011;3730;50.856;12.776;2022-07-09T07:15:39;3.30;;;2.70;;
7377;SDS011;3730;50.856;12.776;2022-07-09T07:18:05;4.30;;;3.90;;
7377;SDS011;3730;50.856;12.776;2022-07-09T07:20:31;5.30;;;3.77;;
7377;SDS011;3730;50.856;12.776;2022-07-09T07:22:57;5.13;;;4.37;;
7377;SDS011;3730;50.856;12.776;2022-07-09T07:25:23;5.67;;;5.13;;
7377;SDS011;3730;50.856;12.776;2022-07-09T07:27:49;6.73;;;6.20;;
7377;SDS011;3730;50.856;12.776;2022-07-09T07:30:15;7.07;;;6.10;;
7377;SDS011;3730;50.856;12.776;2022-07-09T07:32:42;6.37;;;5.87;;
7377;SDS011;3730;50.856;12.776;2022-07-09T07:35:08;7.73;;;6.73;;
7377;SDS011;3730;50.856;12.776;2022-07-09T07:37:34;6.43;;;5.77;;
7377;SDS011;3730;50.856;12.776;2022-07-09T07:40:00;6.47;;;5.87;;
7377;SDS011;3730;50.856;12.776;2022-07-09T07:42:26;6.47;;;5.80;;
7377;SDS011;3730;50.856;12.776;2022-07-09T07:44:52;7.03;;;4.90;;
7377;SDS011;3730;50.856;12.776;2022-07-09T07:47:18;5.70;;;5.20;;
7377;SDS011;3730;50.856;12.776;2022-07-09T07:49:44;5.90;;;5.40;;
7377;SDS011;3730;50.856;12.776;2022-07-09T07:52:10;5.80;;;5.30;;
7377;SDS011;3730;50.856;12.776;2022-07-09T07:54:37;7.93;;;4.40;;
7377;SDS011;3730;50.856;12.776;2022-07-09T07:57:03;5.73;;;4.37;;
7377;SDS011;3730;50.856;12.776;2022-07-09T07:59:30;7.07;;;4.57;;
7377;SDS011;3730;50.856;12.776;2022-07-09T08:01:56;4.30;;;4.00;;
7377;SDS011;3730;50.856;12.776;2022-07-09T08:04:22;4.50;;;4.10;;
7377;SDS011;3730;50.856;12.776;2022-07-09T08:06:48;4.37;;;3.97;;
7377;SDS011;3730;50.856;12.776;2022-07-09T08:09:14;4.30;;;3.83;;
7377;SDS011;3730;50.856;12.776;2022-07-09T08:11:40;3.80;;;3.50;;
7377;SDS011;3730;50.856;12.776;2022-07-09T08:14:06;6.30;;;4.00;;
7377;SDS011;3730;50.856;12.776;2022-07-09T08:16:33;5.13;;;4.63;;
7377;SDS011;3730;50.856;12.776;2022-07-09T08:19:00;4.13;;;3.73;;
7377;SDS011;3730;50.856;12.776;2022-07-09T08:21:26;4.63;;;3.57;;
7377;SDS011;3730;50.856;12.776;2022-07-09T08:23:52;5.60;;;3.70;;
7377;SDS011;3730;50.856;12.776;2022-07-09T08:26:22;4.67;;;3.00;;
7377;SDS011;3730;50.856;12.776;2022-07-09T08:28:48;3.17;;;2.97;;
7377;SDS011;3730;50.856;12.776;2022-07-09T08:31:17;3.67;;;3.20;;
7377;SDS011;3730;50.856;12.776;2022-07-09T08:33:44;5.27;;;3.63;;
7377;SDS011;3730;50.856;12.776;2022-07-09T08:36:10;5.07;;;3.07;;
7377;SDS011;3730;50.856;12.776;2022-07-09T08:38:36;2.73;;;2.53;;
7377;SDS011;3730;50.856;12.776;2022-07-09T08:41:03;3.13;;;2.80;;
7377;SDS011;3730;50.856;12.776;2022-07-09T08:43:31;5.53;;;3.20;;
7377;SDS011;3730;50.856;12.776;2022-07-09T08:45:58;3.53;;;3.10;;
7377;SDS011;3730;50.856;12.776;2022-07-09T08:48:24;3.57;;;2.77;;
7377;SDS011;3730;50.856;12.776;2022-07-09T08:50:50;8.33;;;3.13;;
7377;SDS011;3730;50.856;12.776;2022-07-09T08:53:17;4.70;;;3.20;;
7377;SDS011;3730;50.856;12.776;2022-07-09T08:55:47;3.03;;;2.73;;
7377;SDS011;3730;50.856;12.776;2022-07-09T08:58:13;3.30;;;2.50;;
7377;SDS011;3730;50.856;12.776;2022-07-09T09:00:40;5.50;;;2.53;;
7377;SDS011;3730;50.856;12.776;2022-07-09T09:03:06;3.13;;;2.83;;
7377;SDS011;3730;50.856;12.776;2022-07-09T09:05:32;2.87;;;2.20;;
7377;SDS011;3730;50.856;12.776;2022-07-09T09:07:59;2.37;;;2.27;;
7377;SDS011;3730;50.856;12.776;2022-07-09T09:10:26;4.27;;;2.13;;
7377;SDS011;3730;50.856;12.776;2022-07-09T09:12:55;2.60;;;2.20;;
7377;SDS011;3730;50.856;12.776;2022-07-09T09:15:22;2.53;;;2.33;;
7377;SDS011;3730;50.856;12.776;2022-07-09T09:17:48;3.07;;;2.20;;
7377;SDS011;3730;50.856;12.776;2022-07-09T09:20:14;2.70;;;2.30;;
7377;SDS011;3730;50.856;12.776;2022-07-09T09:22:44;2.33;;;2.00;;
7377;SDS011;3730;50.856;12.776;2022-07-09T09:25:20;3.37;;;2.50;;
7377;SDS011;3730;50.856;12.776;2022-07-09T09:27:53;2.50;;;2.30;;
7377;SDS011;3730;50.856;12.776;2022-07-09T09:30:19;4.20;;;2.20;;
7377;SDS011;3730;50.856;12.776;2022-07-09T09:32:53;4.17;;;2.50;;
7377;SDS011;3730;50.856;12.776;2022-07-09T09:35:20;3.10;;;2.90;;
7377;SDS011;3730;50.856;12.776;2022-07-09T09:37:46;2.87;;;2.60;;
7377;SDS011;3730;50.856;12.776;2022-07-09T09:40:12;3.60;;;2.80;;
7377;SDS011;3730;50.856;12.776;2022-07-09T09:42:40;3.43;;;2.47;;
7377;SDS011;3730;50.856;12.776;2022-07-09T09:45:09;3.83;;;2.50;;
7377;SDS011;3730;50.856;12.776;2022-07-09T09:47:36;2.60;;;2.40;;
7377;SDS011;3730;50.856;12.776;2022-07-09T09:50:02;2.70;;;2.50;;
7377;SDS011;3730;50.856;12.776;2022-07-09T09:52:28;2.23;;;2.13;;
7377;SDS011;3730;50.856;12.776;2022-07-09T09:54:55;3.23;;;2.30;;
7377;SDS011;3730;50.856;12.776;2022-07-09T09:57:21;3.10;;;2.50;;
7377;SDS011;3730;50.856;12.776;2022-07-09T09:59:49;2.67;;;2.47;;
7377;SDS011;3730;50.856;12.776;2022-07-09T10:02:17;4.27;;;3.23;;
7377;SDS011;3730;50.856;12.776;2022-07-09T10:04:45;5.13;;;3.50;;
7377;SDS011;3730;50.856;12.776;2022-07-09T10:07:13;3.90;;;3.60;;
7377;SDS011;3730;50.856;12.776;2022-07-09T10:09:40;6.00;;;3.93;;
7377;SDS011;3730;50.856;12.776;2022-07-09T10:12:06;4.93;;;4.53;;
7377;SDS011;3730;50.856;12.776;2022-07-09T10:14:37;9.93;;;5.90;;
7377;SDS011;3730;50.856;12.776;2022-07-09T10:17:13;4.70;;;4.20;;
7377;SDS011;3730;50.856;12.776;2022-07-09T10:19:56;4.93;;;4.47;;
7377;SDS011;3730;50.856;12.776;2022-07-09T10:22:34;6.50;;;6.00;;
7377;SDS011;3730;50.856;12.776;2022-07-09T10:25:00;6.00;;;5.47;;
7377;SDS011;3730;50.856;12.776;2022-07-09T10:27:26;6.30;;;5.80;;
7377;SDS011;3730;50.856;12.776;2022-07-09T10:32:26;7.17;;;6.57;;
7377;SDS011;3730;50.856;12.776;2022-07-09T10:35:04;8.13;;;7.40;;
7377;SDS011;3730;50.856;12.776;2022-07-09T10:37:44;8.60;;;7.80;;
7377;SDS011;3730;50.856;12.776;2022-07-09T10:40:10;8.20;;;7.43;;
7377;SDS011;3730;50.856;12.776;2022-07-09T10:42:37;8.17;;;7.37;;
7377;SDS011;3730;50.856;12.776;2022-07-09T10:45:14;7.93;;;7.13;;
7377;SDS011;3730;50.856;12.776;2022-07-09T10:47:43;5.40;;;5.00;;
7377;SDS011;3730;50.856;12.776;2022-07-09T10:50:12;5.10;;;4.70;;
7377;SDS011;3730;50.856;12.776;2022-07-09T10:52:38;5.70;;;5.30;;
7377;SDS011;3730;50.856;12.776;2022-07-09T10:55:04;5.77;;;5.17;;
7377;SDS011;3730;50.856;12.776;2022-07-09T10:57:30;5.57;;;5.10;;
7377;SDS011;3730;50.856;12.776;2022-07-09T10:59:56;6.67;;;6.07;;
7377;SDS011;3730;50.856;12.776;2022-07-09T11:02:22;5.73;;;5.13;;
7377;SDS011;3730;50.856;12.776;2022-07-09T11:04:48;4.97;;;4.57;;
7377;SDS011;3730;50.856;12.776;2022-07-09T11:07:19;4.67;;;4.27;;
7377;SDS011;3730;50.856;12.776;2022-07-09T11:09:48;5.03;;;4.63;;
7377;SDS011;3730;50.856;12.776;2022-07-09T11:12:18;5.23;;;4.83;;
7377;SDS011;3730;50.856;12.776;2022-07-09T11:14:46;4.80;;;4.50;;
7377;SDS011;3730;50.856;12.776;2022-07-09T11:17:14;5.10;;;4.60;;
7377;SDS011;3730;50.856;12.776;2022-07-09T11:19:40;7.03;;;5.50;;
7377;SDS011;3730;50.856;12.776;2022-07-09T11:22:06;4.77;;;4.37;;
7377;SDS011;3730;50.856;12.776;2022-07-09T11:24:32;6.40;;;5.90;;
7377;SDS011;3730;50.856;12.776;2022-07-09T11:27:01;6.13;;;5.63;;
7377;SDS011;3730;50.856;12.776;2022-07-09T11:29:27;5.33;;;4.87;;
7377;SDS011;3730;50.856;12.776;2022-07-09T11:31:53;5.10;;;4.70;;
7377;SDS011;3730;50.856;12.776;2022-07-09T11:34:19;4.70;;;4.40;;
7377;SDS011;3730;50.856;12.776;2022-07-09T11:36:46;4.20;;;3.90;;
7377;SDS011;3730;50.856;12.776;2022-07-09T11:39:27;3.83;;;3.63;;
7377;SDS011;3730;50.856;12.776;2022-07-09T11:41:54;3.53;;;3.27;;
7377;SDS011;3730;50.856;12.776;2022-07-09T11:44:20;3.90;;;3.50;;
7377;SDS011;3730;50.856;12.776;2022-07-09T11:46:59;3.83;;;3.53;;
7377;SDS011;3730;50.856;12.776;2022-07-09T11:49:31;4.23;;;3.93;;
7377;SDS011;3730;50.856;12.776;2022-07-09T11:51:57;4.80;;;4.40;;
7377;SDS011;3730;50.856;12.776;2022-07-09T11:54:26;3.57;;;3.30;;
7377;SDS011;3730;50.856;12.776;2022-07-09T11:56:53;3.53;;;3.30;;
7377;SDS011;3730;50.856;12.776;2022-07-09T11:59:28;4.27;;;3.97;;
7377;SDS011;3730;50.856;12.776;2022-07-09T12:01:58;4.23;;;3.93;;
7377;SDS011;3730;50.856;12.776;2022-07-09T12:04:28;4.20;;;3.37;;
7377;SDS011;3730;50.856;12.776;2022-07-09T12:06:56;4.83;;;3.40;;
7377;SDS011;3730;50.856;12.776;2022-07-09T12:09:29;2.73;;;2.57;;
7377;SDS011;3730;50.856;12.776;2022-07-09T12:11:56;2.83;;;2.50;;
7377;SDS011;3730;50.856;12.776;2022-07-09T12:14:22;2.80;;;2.60;;
7377;SDS011;3730;50.856;12.776;2022-07-09T12:16:48;2.30;;;2.10;;
7377;SDS011;3730;50.856;12.776;2022-07-09T12:19:14;3.50;;;2.63;;
7377;SDS011;3730;50.856;12.776;2022-07-09T12:21:40;3.30;;;3.00;;
7377;SDS011;3730;50.856;12.776;2022-07-09T12:24:06;3.00;;;2.80;;
7377;SDS011;3730;50.856;12.776;2022-07-09T12:26:32;2.90;;;2.70;;
7377;SDS011;3730;50.856;12.776;2022-07-09T12:28:58;3.57;;;2.30;;
7377;SDS011;3730;50.856;12.776;2022-07-09T12:31:24;3.03;;;2.80;;
7377;SDS011;3730;50.856;12.776;2022-07-09T12:33:50;2.67;;;2.47;;
7377;SDS011;3730;50.856;12.776;2022-07-09T12:36:16;2.77;;;2.53;;
7377;SDS011;3730;50.856;12.776;2022-07-09T12:38:43;3.80;;;2.47;;
7377;SDS011;3730;50.856;12.776;2022-07-09T12:41:09;4.43;;;3.00;;
7377;SDS011;3730;50.856;12.776;2022-07-09T12:43:35;2.50;;;2.30;;
7377;SDS011;3730;50.856;12.776;2022-07-09T12:46:01;3.77;;;2.50;;
7377;SDS011;3730;50.856;12.776;2022-07-09T12:48:27;2.80;;;2.60;;
7377;SDS011;3730;50.856;12.776;2022-07-09T12:50:53;2.80;;;2.57;;
7377;SDS011;3730;50.856;12.776;2022-07-09T12:53:19;2.70;;;2.50;;
7377;SDS011;3730;50.856;12.776;2022-07-09T12:55:45;2.63;;;2.50;;
7377;SDS011;3730;50.856;12.776;2022-07-09T12:58:13;2.33;;;2.23;;
7377;SDS011;3730;50.856;12.776;2022-07-09T13:00:39;3.33;;;3.10;;
7377;SDS011;3730;50.856;12.776;2022-07-09T13:03:05;2.40;;;2.30;;
7377;SDS011;3730;50.856;12.776;2022-07-09T13:05:31;2.27;;;2.00;;
7377;SDS011;3730;50.856;12.776;2022-07-09T13:07:57;2.63;;;2.43;;
7377;SDS011;3730;50.856;12.776;2022-07-09T13:10:23;1.90;;;1.80;;
7377;SDS011;3730;50.856;12.776;2022-07-09T13:12:49;2.13;;;1.90;;
7377;SDS011;3730;50.856;12.776;2022-07-09T13:15:15;3.20;;;2.10;;
7377;SDS011;3730;50.856;12.776;2022-07-09T13:17:46;2.30;;;2.10;;
7377;SDS011;3730;50.856;12.776;2022-07-09T13:20:12;1.70;;;1.60;;
7377;SDS011;3730;50.856;12.776;2022-07-09T13:22:38;1.60;;;1.50;;
7377;SDS011;3730;50.856;12.776;2022-07-09T13:25:05;1.80;;;1.60;;
7377;SDS011;3730;50.856;12.776;2022-07-09T13:27:31;1.80;;;1.60;;
7377;SDS011;3730;50.856;12.776;2022-07-09T13:29:57;1.90;;;1.70;;
7377;SDS011;3730;50.856;12.776;2022-07-09T13:32:23;1.80;;;1.60;;
7377;SDS011;3730;50.856;12.776;2022-07-09T13:34:49;1.50;;;1.40;;
7377;SDS011;3730;50.856;12.776;2022-07-09T13:37:16;1.43;;;1.33;;
7377;SDS011;3730;50.856;12.776;2022-07-09T13:39:42;1.27;;;1.20;;
7377;SDS011;3730;50.856;12.776;2022-07-09T13:42:08;1.43;;;1.33;;
7377;SDS011;3730;50.856;12.776;2022-07-09T13:44:34;3.43;;;2.10;;
7377;SDS011;3730;50.856;12.776;2022-07-09T13:47:00;1.57;;;1.47;;
7377;SDS011;3730;50.856;12.776;2022-07-09T13:49:26;1.40;;;1.30;;
7377;SDS011;3730;50.856;12.776;2022-07-09T13:51:52;1.57;;;1.47;;
7377;SDS011;3730;50.856;12.776;2022-07-09T13:54:18;2.00;;;1.70;;
7377;SDS011;3730;50.856;12.776;2022-07-09T13:56:44;1.30;;;1.20;;
7377;SDS011;3730;50.856;12.776;2022-07-09T13:59:10;1.50;;;1.40;;
7377;SDS011;3730;50.856;12.776;2022-07-09T14:01:36;3.27;;;1.50;;
7377;SDS011;3730;50.856;12.776;2022-07-09T14:04:02;1.30;;;1.20;;
7377;SDS011;3730;50.856;12.776;2022-07-09T14:06:28;1.33;;;1.30;;
7377;SDS011;3730;50.856;12.776;2022-07-09T14:08:55;3.20;;;1.60;;
7377;SDS011;3730;50.856;12.776;2022-07-09T14:11:21;2.30;;;1.47;;
7377;SDS011;3730;50.856;12.776;2022-07-09T14:13:47;1.33;;;1.30;;
7377;SDS011;3730;50.856;12.776;2022-07-09T14:16:14;1.50;;;1.40;;
7377;SDS011;3730;50.856;12.776;2022-07-09T14:18:40;3.00;;;1.40;;
7377;SDS011;3730;50.856;12.776;2022-07-09T14:21:06;1.50;;;1.40;;
7377;SDS011;3730;50.856;12.776;2022-07-09T14:23:32;3.93;;;1.37;;
7377;SDS011;3730;50.856;12.776;2022-07-09T14:25:58;1.50;;;1.40;;
7377;SDS011;3730;50.856;12.776;2022-07-09T14:28:25;1.83;;;1.03;;
7377;SDS011;3730;50.856;12.776;2022-07-09T14:30:51;1.40;;;1.20;;
7377;SDS011;3730;50.856;12.776;2022-07-09T14:33:17;2.90;;;1.20;;
7377;SDS011;3730;50.856;12.776;2022-07-09T14:35:43;1.87;;;1.70;;
7377;SDS011;3730;50.856;12.776;2022-07-09T14:38:09;1.43;;;1.33;;
7377;SDS011;3730;50.856;12.776;2022-07-09T14:40:35;1.63;;;1.47;;
7377;SDS011;3730;50.856;12.776;2022-07-09T14:43:01;1.77;;;1.47;;
7377;SDS011;3730;50.856;12.776;2022-07-09T14:45:27;5.73;;;1.57;;
7377;SDS011;3730;50.856;12.776;2022-07-09T14:47:53;2.67;;;2.20;;
7377;SDS011;3730;50.856;12.776;2022-07-09T14:50:19;2.13;;;1.83;;
7377;SDS011;3730;50.856;12.776;2022-07-09T14:52:46;4.07;;;2.23;;
7377;SDS011;3730;50.856;12.776;2022-07-09T14:55:12;4.17;;;2.03;;
7377;SDS011;3730;50.856;12.776;2022-07-09T14:57:38;4.03;;;1.30;;
7377;SDS011;3730;50.856;12.776;2022-07-09T15:00:04;2.77;;;1.03;;